sensor_id;sensor_type;location;lat;lon;timestamp;temperature;humidity
31597;DHT22;18201;50.978;7.034;2023-04-30T03:20:38;5.80;99.90
31597;DHT22;18201;50.978;7.034;2023-04-30T05:45:16;5.70;99.90
31597;DHT22;18201;50.978;7.034;2023-04-30T05:45:47;5.80;99.90
31597;DHT22;18201;50.978;7.034;2023-04-30T05:46:18;5.80;99.90
31597;DHT22;18201;50.978;7.034;2023-04-30T05:46:49;5.80;99.90
31597;DHT22;18201;50.978;7.034;2023-04-30T05:47:21;5.80;99.90
31597;DHT22;18201;50.978;7.034;2023-04-30T05:47:52;5.90;99.90
31597;DHT22;18201;50.978;7.034;2023-04-30T05:48:23;5.90;99.90
31597;DHT22;18201;50.978;7.034;2023-04-30T05:48:55;5.90;99.90
31597;DHT22;18201;50.978;7.034;2023-04-30T05:49:26;5.90;99.90
31597;DHT22;18201;50.978;7.034;2023-04-30T05:49:57;6.00;99.90
31597;DHT22;18201;50.978;7.034;2023-04-30T05:50:29;6.00;99.90
31597;DHT22;18201;50.978;7.034;2023-04-30T05:51:00;6.00;99.90
31597;DHT22;18201;50.978;7.034;2023-04-30T05:51:31;6.00;99.90
31597;DHT22;18201;50.978;7.034;2023-04-30T05:52:04;6.00;99.90
31597;DHT22;18201;50.978;7.034;2023-04-30T05:52:34;6.10;99.90
31597;DHT22;18201;50.978;7.034;2023-04-30T05:53:05;6.10;99.90
31597;DHT22;18201;50.978;7.034;2023-04-30T05:53:38;6.10;99.90
31597;DHT22;18201;50.978;7.034;2023-04-30T05:54:09;6.20;99.90
31597;DHT22;18201;50.978;7.034;2023-04-30T05:54:45;6.20;99.90
31597;DHT22;18201;50.978;7.034;2023-04-30T05:55:17;6.20;99.90
31597;DHT22;18201;50.978;7.034;2023-04-30T05:55:49;6.20;99.90
31597;DHT22;18201;50.978;7.034;2023-04-30T05:56:21;6.30;99.90
31597;DHT22;18201;50.978;7.034;2023-04-30T05:56:54;6.30;99.90
31597;DHT22;18201;50.978;7.034;2023-04-30T05:57:25;6.30;99.90
31597;DHT22;18201;50.978;7.034;2023-04-30T05:57:57;6.30;99.90
31597;DHT22;18201;50.978;7.034;2023-04-30T05:58:28;6.30;99.90
31597;DHT22;18201;50.978;7.034;2023-04-30T05:58:59;6.40;99.90
31597;DHT22;18201;50.978;7.034;2023-04-30T05:59:31;6.40;99.90
31597;DHT22;18201;50.978;7.034;2023-04-30T06:00:02;6.40;99.90
31597;DHT22;18201;50.978;7.034;2023-04-30T06:00:37;6.50;99.90
31597;DHT22;18201;50.978;7.034;2023-04-30T06:01:09;6.50;99.90
31597;DHT22;18201;50.978;7.034;2023-04-30T06:01:40;6.50;99.90
31597;DHT22;18201;50.978;7.034;2023-04-30T06:02:11;6.50;99.90
31597;DHT22;18201;50.978;7.034;2023-04-30T06:02:43;6.50;99.90
31597;DHT22;18201;50.978;7.034;2023-04-30T06:03:14;6.50;99.90
31597;DHT22;18201;50.978;7.034;2023-04-30T06:03:45;6.50;99.90
31597;DHT22;18201;50.978;7.034;2023-04-30T07:14:09;8.30;99.90
31597;DHT22;18201;50.978;7.034;2023-04-30T07:14:41;8.30;99.90
31597;DHT22;18201;50.978;7.034;2023-04-30T07:15:14;8.30;99.90
31597;DHT22;18201;50.978;7.034;2023-04-30T07:15:45;8.40;99.90
31597;DHT22;18201;50.978;7.034;2023-04-30T07:16:17;8.40;99.90
31597;DHT22;18201;50.978;7.034;2023-04-30T07:16:49;8.40;99.90
31597;DHT22;18201;50.978;7.034;2023-04-30T07:17:20;8.40;99.90
31597;DHT22;18201;50.978;7.034;2023-04-30T07:17:51;8.40;99.90
31597;DHT22;18201;50.978;7.034;2023-04-30T07:18:22;8.40;99.90
31597;DHT22;18201;50.978;7.034;2023-04-30T07:18:53;8.50;99.90
31597;DHT22;18201;50.978;7.034;2023-04-30T07:19:25;8.50;99.90
31597;DHT22;18201;50.978;7.034;2023-04-30T07:19:56;8.50;99.90
31597;DHT22;18201;50.978;7.034;2023-04-30T07:20:27;8.50;99.90
31597;DHT22;18201;50.978;7.034;2023-04-30T07:20:59;8.50;99.90
31597;DHT22;18201;50.978;7.034;2023-04-30T07:21:30;8.60;99.90
31597;DHT22;18201;50.978;7.034;2023-04-30T07:22:02;8.60;99.90
31597;DHT22;18201;50.978;7.034;2023-04-30T07:22:34;8.60;99.90
31597;DHT22;18201;50.978;7.034;2023-04-30T07:23:05;8.60;99.90
31597;DHT22;18201;50.978;7.034;2023-04-30T07:23:36;8.70;99.90
31597;DHT22;18201;50.978;7.034;2023-04-30T07:24:07;8.70;99.90
31597;DHT22;18201;50.978;7.034;2023-04-30T07:24:40;8.70;99.90
31597;DHT22;18201;50.978;7.034;2023-04-30T07:25:10;8.70;99.90
31597;DHT22;18201;50.978;7.034;2023-04-30T07:25:42;8.70;99.90
31597;DHT22;18201;50.978;7.034;2023-04-30T07:26:13;8.80;99.90
31597;DHT22;18201;50.978;7.034;2023-04-30T07:26:45;8.80;99.90
31597;DHT22;18201;50.978;7.034;2023-04-30T07:27:17;8.90;99.90
31597;DHT22;18201;50.978;7.034;2023-04-30T07:27:47;8.80;99.90
31597;DHT22;18201;50.978;7.034;2023-04-30T07:28:20;8.90;99.90
31597;DHT22;18201;50.978;7.034;2023-04-30T07:28:52;8.90;99.90
31597;DHT22;18201;50.978;7.034;2023-04-30T07:29:24;8.90;99.90
31597;DHT22;18201;50.978;7.034;2023-04-30T07:29:55;8.90;99.90
31597;DHT22;18201;50.978;7.034;2023-04-30T07:30:27;9.00;99.90
31597;DHT22;18201;50.978;7.034;2023-04-30T07:30:58;9.00;99.90
31597;DHT22;18201;50.978;7.034;2023-04-30T07:31:29;9.00;99.90
31597;DHT22;18201;50.978;7.034;2023-04-30T07:32:01;9.00;99.90
31597;DHT22;18201;50.978;7.034;2023-04-30T07:32:34;9.00;99.90
31597;DHT22;18201;50.978;7.034;2023-04-30T07:33:06;9.00;99.90
31597;DHT22;18201;50.978;7.034;2023-04-30T07:33:37;9.10;99.90
31597;DHT22;18201;50.978;7.034;2023-04-30T07:34:08;9.10;99.90
31597;DHT22;18201;50.978;7.034;2023-04-30T07:34:40;9.10;99.90
31597;DHT22;18201;50.978;7.034;2023-04-30T07:35:11;9.20;99.90
31597;DHT22;18201;50.978;7.034;2023-04-30T07:35:44;9.20;99.90
31597;DHT22;18201;50.978;7.034;2023-04-30T07:36:14;9.20;99.90
31597;DHT22;18201;50.978;7.034;2023-04-30T07:36:47;9.20;99.90
31597;DHT22;18201;50.978;7.034;2023-04-30T07:37:19;9.20;99.90
31597;DHT22;18201;50.978;7.034;2023-04-30T07:37:49;9.30;99.90
31597;DHT22;18201;50.978;7.034;2023-04-30T07:38:21;9.30;99.90
31597;DHT22;18201;50.978;7.034;2023-04-30T07:38:53;9.30;99.90
31597;DHT22;18201;50.978;7.034;2023-04-30T07:39:24;9.30;99.90
31597;DHT22;18201;50.978;7.034;2023-04-30T07:39:55;9.40;99.90
31597;DHT22;18201;50.978;7.034;2023-04-30T07:40:27;9.30;99.90
31597;DHT22;18201;50.978;7.034;2023-04-30T07:40:59;9.40;99.90
31597;DHT22;18201;50.978;7.034;2023-04-30T07:41:31;9.40;99.90
31597;DHT22;18201;50.978;7.034;2023-04-30T07:42:03;9.40;99.90
31597;DHT22;18201;50.978;7.034;2023-04-30T07:42:34;9.40;99.90
31597;DHT22;18201;50.978;7.034;2023-04-30T07:43:05;9.40;99.90
31597;DHT22;18201;50.978;7.034;2023-04-30T07:43:37;9.40;99.90
31597;DHT22;18201;50.978;7.034;2023-04-30T07:44:07;9.40;99.90
31597;DHT22;18201;50.978;7.034;2023-04-30T07:44:40;9.50;99.90
31597;DHT22;18201;50.978;7.034;2023-04-30T07:45:12;9.50;99.90
31597;DHT22;18201;50.978;7.034;2023-04-30T07:45:43;9.50;99.90
31597;DHT22;18201;50.978;7.034;2023-04-30T07:46:14;9.60;99.90
31597;DHT22;18201;50.978;7.034;2023-04-30T07:46:46;9.50;99.90
31597;DHT22;18201;50.978;7.034;2023-04-30T07:47:17;9.60;99.90
31597;DHT22;18201;50.978;7.034;2023-04-30T07:47:49;9.60;99.90
31597;DHT22;18201;50.978;7.034;2023-04-30T07:48:22;9.60;99.90
31597;DHT22;18201;50.978;7.034;2023-04-30T07:48:53;9.60;99.90
31597;DHT22;18201;50.978;7.034;2023-04-30T07:49:25;9.60;99.90
31597;DHT22;18201;50.978;7.034;2023-04-30T07:49:56;9.60;99.90
31597;DHT22;18201;50.978;7.034;2023-04-30T07:50:27;9.70;99.90
31597;DHT22;18201;50.978;7.034;2023-04-30T07:51:03;9.70;99.90
31597;DHT22;18201;50.978;7.034;2023-04-30T07:51:34;9.80;99.90
31597;DHT22;18201;50.978;7.034;2023-04-30T07:52:06;9.90;99.90
31597;DHT22;18201;50.978;7.034;2023-04-30T07:52:40;9.90;99.90
31597;DHT22;18201;50.978;7.034;2023-04-30T07:53:11;9.90;99.90
31597;DHT22;18201;50.978;7.034;2023-04-30T07:53:46;10.00;99.90
31597;DHT22;18201;50.978;7.034;2023-04-30T07:54:17;10.00;99.90
31597;DHT22;18201;50.978;7.034;2023-04-30T07:54:49;10.00;99.90
31597;DHT22;18201;50.978;7.034;2023-04-30T07:55:20;9.90;99.90
31597;DHT22;18201;50.978;7.034;2023-04-30T07:55:51;10.00;99.90
31597;DHT22;18201;50.978;7.034;2023-04-30T07:56:22;10.00;99.90
31597;DHT22;18201;50.978;7.034;2023-04-30T07:56:53;10.10;99.90
31597;DHT22;18201;50.978;7.034;2023-04-30T07:57:24;10.10;99.90
31597;DHT22;18201;50.978;7.034;2023-04-30T07:57:58;10.20;99.90
31597;DHT22;18201;50.978;7.034;2023-04-30T07:58:29;10.30;99.90
31597;DHT22;18201;50.978;7.034;2023-04-30T07:59:00;10.30;99.90
31597;DHT22;18201;50.978;7.034;2023-04-30T07:59:32;10.30;99.90
31597;DHT22;18201;50.978;7.034;2023-04-30T08:00:06;10.40;99.90
31597;DHT22;18201;50.978;7.034;2023-04-30T08:00:38;10.40;99.90
31597;DHT22;18201;50.978;7.034;2023-04-30T08:01:09;10.40;99.90
31597;DHT22;18201;50.978;7.034;2023-04-30T08:01:40;10.40;99.90
31597;DHT22;18201;50.978;7.034;2023-04-30T08:02:12;10.40;99.90
31597;DHT22;18201;50.978;7.034;2023-04-30T08:02:43;10.50;99.90
31597;DHT22;18201;50.978;7.034;2023-04-30T08:03:15;10.50;99.90
31597;DHT22;18201;50.978;7.034;2023-04-30T08:03:46;10.50;99.90
31597;DHT22;18201;50.978;7.034;2023-04-30T08:04:17;10.50;99.90
31597;DHT22;18201;50.978;7.034;2023-04-30T08:04:49;10.50;99.90
31597;DHT22;18201;50.978;7.034;2023-04-30T08:05:20;10.60;99.90
31597;DHT22;18201;50.978;7.034;2023-04-30T08:05:52;10.60;99.90
31597;DHT22;18201;50.978;7.034;2023-04-30T08:06:23;10.60;99.90
31597;DHT22;18201;50.978;7.034;2023-04-30T08:06:56;10.70;99.90
31597;DHT22;18201;50.978;7.034;2023-04-30T08:07:27;10.70;99.90
31597;DHT22;18201;50.978;7.034;2023-04-30T08:07:58;10.70;99.90
31597;DHT22;18201;50.978;7.034;2023-04-30T08:08:30;10.80;99.90
31597;DHT22;18201;50.978;7.034;2023-04-30T08:09:01;10.80;99.90
31597;DHT22;18201;50.978;7.034;2023-04-30T08:09:33;10.80;99.90
31597;DHT22;18201;50.978;7.034;2023-04-30T08:10:05;10.80;99.90
31597;DHT22;18201;50.978;7.034;2023-04-30T08:10:37;10.80;99.90
31597;DHT22;18201;50.978;7.034;2023-04-30T08:11:09;10.90;99.90
31597;DHT22;18201;50.978;7.034;2023-04-30T08:11:41;10.90;99.90
31597;DHT22;18201;50.978;7.034;2023-04-30T08:12:12;11.00;99.90
31597;DHT22;18201;50.978;7.034;2023-04-30T08:12:44;11.00;99.90
31597;DHT22;18201;50.978;7.034;2023-04-30T08:13:16;11.10;99.90
31597;DHT22;18201;50.978;7.034;2023-04-30T08:13:47;11.10;99.90
31597;DHT22;18201;50.978;7.034;2023-04-30T08:14:21;11.10;99.90
31597;DHT22;18201;50.978;7.034;2023-04-30T08:14:58;11.10;99.90
31597;DHT22;18201;50.978;7.034;2023-04-30T08:15:32;11.10;99.90
31597;DHT22;18201;50.978;7.034;2023-04-30T08:16:04;11.10;99.90
31597;DHT22;18201;50.978;7.034;2023-04-30T08:16:35;11.10;99.90
31597;DHT22;18201;50.978;7.034;2023-04-30T08:17:07;11.10;99.90
31597;DHT22;18201;50.978;7.034;2023-04-30T08:17:38;11.10;99.90
31597;DHT22;18201;50.978;7.034;2023-04-30T08:18:09;11.10;99.90
31597;DHT22;18201;50.978;7.034;2023-04-30T08:18:42;11.10;99.90
31597;DHT22;18201;50.978;7.034;2023-04-30T08:19:14;11.10;99.90
31597;DHT22;18201;50.978;7.034;2023-04-30T08:19:46;11.10;99.90
31597;DHT22;18201;50.978;7.034;2023-04-30T08:20:17;11.10;99.90
31597;DHT22;18201;50.978;7.034;2023-04-30T08:20:48;11.10;99.90
31597;DHT22;18201;50.978;7.034;2023-04-30T08:21:20;11.10;99.90
31597;DHT22;18201;50.978;7.034;2023-04-30T08:21:51;11.20;99.90
31597;DHT22;18201;50.978;7.034;2023-04-30T08:22:22;11.20;99.90
31597;DHT22;18201;50.978;7.034;2023-04-30T08:22:55;11.20;99.90
31597;DHT22;18201;50.978;7.034;2023-04-30T08:23:25;11.20;99.90
31597;DHT22;18201;50.978;7.034;2023-04-30T08:23:56;11.20;99.90
31597;DHT22;18201;50.978;7.034;2023-04-30T08:24:28;11.20;99.90
31597;DHT22;18201;50.978;7.034;2023-04-30T08:24:59;11.30;99.90
31597;DHT22;18201;50.978;7.034;2023-04-30T08:25:31;11.30;99.90
31597;DHT22;18201;50.978;7.034;2023-04-30T08:26:03;11.30;99.90
31597;DHT22;18201;50.978;7.034;2023-04-30T08:26:34;11.30;99.90
31597;DHT22;18201;50.978;7.034;2023-04-30T08:27:06;11.30;99.90
31597;DHT22;18201;50.978;7.034;2023-04-30T08:27:37;11.30;99.90
31597;DHT22;18201;50.978;7.034;2023-04-30T08:28:08;11.30;99.90
31597;DHT22;18201;50.978;7.034;2023-04-30T08:28:40;11.40;99.90
31597;DHT22;18201;50.978;7.034;2023-04-30T08:29:11;11.40;99.90
31597;DHT22;18201;50.978;7.034;2023-04-30T08:29:42;11.50;99.90
31597;DHT22;18201;50.978;7.034;2023-04-30T08:30:14;11.50;99.90
31597;DHT22;18201;50.978;7.034;2023-04-30T08:30:46;11.50;99.90
31597;DHT22;18201;50.978;7.034;2023-04-30T08:31:17;11.50;99.90
31597;DHT22;18201;50.978;7.034;2023-04-30T08:31:49;11.50;99.90
31597;DHT22;18201;50.978;7.034;2023-04-30T08:32:20;11.60;95.90
31597;DHT22;18201;50.978;7.034;2023-04-30T08:32:51;11.60;81.10
31597;DHT22;18201;50.978;7.034;2023-04-30T08:33:23;11.60;42.40
31597;DHT22;18201;50.978;7.034;2023-04-30T08:33:54;11.70;50.10
31597;DHT22;18201;50.978;7.034;2023-04-30T08:34:25;11.70;67.20
31597;DHT22;18201;50.978;7.034;2023-04-30T08:34:56;11.70;68.10
31597;DHT22;18201;50.978;7.034;2023-04-30T08:35:27;11.70;58.30
31597;DHT22;18201;50.978;7.034;2023-04-30T08:36:00;11.70;56.10
31597;DHT22;18201;50.978;7.034;2023-04-30T08:36:31;11.70;61.60
31597;DHT22;18201;50.978;7.034;2023-04-30T08:37:02;11.80;65.20
31597;DHT22;18201;50.978;7.034;2023-04-30T08:37:34;11.80;36.40
31597;DHT22;18201;50.978;7.034;2023-04-30T08:38:05;11.70;28.90
31597;DHT22;18201;50.978;7.034;2023-04-30T08:38:37;11.70;20.60
31597;DHT22;18201;50.978;7.034;2023-04-30T08:39:07;11.70;1.00
31597;DHT22;18201;50.978;7.034;2023-04-30T08:39:38;11.70;1.00
31597;DHT22;18201;50.978;7.034;2023-04-30T08:40:11;11.70;1.00
31597;DHT22;18201;50.978;7.034;2023-04-30T08:40:51;11.70;5.40
31597;DHT22;18201;50.978;7.034;2023-04-30T08:41:25;11.70;14.10
31597;DHT22;18201;50.978;7.034;2023-04-30T08:42:01;11.80;20.80
31597;DHT22;18201;50.978;7.034;2023-04-30T08:42:35;11.80;12.50
31597;DHT22;18201;50.978;7.034;2023-04-30T08:43:07;11.80;15.30
31597;DHT22;18201;50.978;7.034;2023-04-30T08:43:41;11.80;16.10
31597;DHT22;18201;50.978;7.034;2023-04-30T08:44:13;11.90;26.80
31597;DHT22;18201;50.978;7.034;2023-04-30T08:44:45;11.80;40.40
31597;DHT22;18201;50.978;7.034;2023-04-30T08:45:18;11.80;26.70
31597;DHT22;18201;50.978;7.034;2023-04-30T08:45:50;11.90;23.90
31597;DHT22;18201;50.978;7.034;2023-04-30T08:46:23;11.90;12.90
31597;DHT22;18201;50.978;7.034;2023-04-30T08:46:55;11.90;1.00
31597;DHT22;18201;50.978;7.034;2023-04-30T08:47:27;11.90;1.00
31597;DHT22;18201;50.978;7.034;2023-04-30T08:48:01;11.90;1.00
31597;DHT22;18201;50.978;7.034;2023-04-30T08:48:33;11.90;1.00
31597;DHT22;18201;50.978;7.034;2023-04-30T08:49:04;11.90;1.00
31597;DHT22;18201;50.978;7.034;2023-04-30T08:49:36;11.90;1.00
31597;DHT22;18201;50.978;7.034;2023-04-30T08:50:07;12.00;1.00
31597;DHT22;18201;50.978;7.034;2023-04-30T08:50:39;12.10;1.00
31597;DHT22;18201;50.978;7.034;2023-04-30T08:51:11;12.10;1.00
31597;DHT22;18201;50.978;7.034;2023-04-30T08:51:42;12.20;1.00
31597;DHT22;18201;50.978;7.034;2023-04-30T08:52:13;12.30;1.00
31597;DHT22;18201;50.978;7.034;2023-04-30T08:52:44;12.30;1.00
31597;DHT22;18201;50.978;7.034;2023-04-30T08:53:16;12.30;1.00
31597;DHT22;18201;50.978;7.034;2023-04-30T08:53:54;12.30;1.00
31597;DHT22;18201;50.978;7.034;2023-04-30T08:54:27;12.30;1.00
31597;DHT22;18201;50.978;7.034;2023-04-30T08:55:01;12.30;1.00
31597;DHT22;18201;50.978;7.034;2023-04-30T08:55:34;12.40;1.00
31597;DHT22;18201;50.978;7.034;2023-04-30T08:56:07;12.40;1.00
31597;DHT22;18201;50.978;7.034;2023-04-30T08:56:40;12.50;1.00
31597;DHT22;18201;50.978;7.034;2023-04-30T08:57:11;12.50;1.00
31597;DHT22;18201;50.978;7.034;2023-04-30T08:57:42;12.60;1.00
31597;DHT22;18201;50.978;7.034;2023-04-30T08:58:13;12.60;1.00
31597;DHT22;18201;50.978;7.034;2023-04-30T08:58:44;12.50;1.00
31597;DHT22;18201;50.978;7.034;2023-04-30T08:59:15;12.50;1.00
31597;DHT22;18201;50.978;7.034;2023-04-30T08:59:47;12.50;1.00
31597;DHT22;18201;50.978;7.034;2023-04-30T09:00:18;12.60;1.00
31597;DHT22;18201;50.978;7.034;2023-04-30T09:00:51;12.60;1.00
31597;DHT22;18201;50.978;7.034;2023-04-30T09:01:23;12.60;1.00
31597;DHT22;18201;50.978;7.034;2023-04-30T09:01:54;12.60;1.00
31597;DHT22;18201;50.978;7.034;2023-04-30T09:02:25;12.60;1.00
31597;DHT22;18201;50.978;7.034;2023-04-30T09:02:57;12.60;1.00
31597;DHT22;18201;50.978;7.034;2023-04-30T09:03:30;12.60;1.00
31597;DHT22;18201;50.978;7.034;2023-04-30T09:04:03;12.70;1.00
31597;DHT22;18201;50.978;7.034;2023-04-30T09:04:34;12.70;1.00
31597;DHT22;18201;50.978;7.034;2023-04-30T09:05:07;12.70;1.00
31597;DHT22;18201;50.978;7.034;2023-04-30T09:05:41;12.70;1.00
31597;DHT22;18201;50.978;7.034;2023-04-30T09:06:15;12.80;1.00
31597;DHT22;18201;50.978;7.034;2023-04-30T09:06:48;12.80;1.00
31597;DHT22;18201;50.978;7.034;2023-04-30T09:07:22;12.80;1.00
31597;DHT22;18201;50.978;7.034;2023-04-30T09:07:55;12.80;1.00
31597;DHT22;18201;50.978;7.034;2023-04-30T09:08:44;12.80;1.00
31597;DHT22;18201;50.978;7.034;2023-04-30T09:09:17;12.80;1.00
31597;DHT22;18201;50.978;7.034;2023-04-30T09:09:51;12.80;1.00
31597;DHT22;18201;50.978;7.034;2023-04-30T09:10:23;12.90;1.00
31597;DHT22;18201;50.978;7.034;2023-04-30T09:10:54;12.80;1.00
31597;DHT22;18201;50.978;7.034;2023-04-30T09:11:26;12.90;1.00
31597;DHT22;18201;50.978;7.034;2023-04-30T09:12:11;12.90;1.00
31597;DHT22;18201;50.978;7.034;2023-04-30T09:12:48;13.00;99.90
31597;DHT22;18201;50.978;7.034;2023-04-30T09:13:39;13.00;1.00
31597;DHT22;18201;50.978;7.034;2023-04-30T09:14:10;13.10;1.00
31597;DHT22;18201;50.978;7.034;2023-04-30T09:14:56;13.00;1.00
31597;DHT22;18201;50.978;7.034;2023-04-30T09:15:28;13.10;99.90
31597;DHT22;18201;50.978;7.034;2023-04-30T09:16:01;13.00;99.90
31597;DHT22;18201;50.978;7.034;2023-04-30T09:16:45;13.10;99.90
31597;DHT22;18201;50.978;7.034;2023-04-30T09:17:20;13.20;99.90
31597;DHT22;18201;50.978;7.034;2023-04-30T09:18:05;13.20;99.90
31597;DHT22;18201;50.978;7.034;2023-04-30T09:18:38;13.10;99.90
31597;DHT22;18201;50.978;7.034;2023-04-30T09:19:09;13.10;99.90
31597;DHT22;18201;50.978;7.034;2023-04-30T09:19:41;13.20;99.90
31597;DHT22;18201;50.978;7.034;2023-04-30T09:20:13;13.20;99.90
31597;DHT22;18201;50.978;7.034;2023-04-30T09:20:55;13.20;99.90
31597;DHT22;18201;50.978;7.034;2023-04-30T09:21:33;13.30;99.90
31597;DHT22;18201;50.978;7.034;2023-04-30T09:22:28;13.30;99.90
31597;DHT22;18201;50.978;7.034;2023-04-30T09:23:07;13.40;99.90
31597;DHT22;18201;50.978;7.034;2023-04-30T09:23:53;13.40;99.90
31597;DHT22;18201;50.978;7.034;2023-04-30T09:24:25;13.40;99.90
31597;DHT22;18201;50.978;7.034;2023-04-30T09:24:56;13.40;99.90
31597;DHT22;18201;50.978;7.034;2023-04-30T09:25:37;13.40;99.90
31597;DHT22;18201;50.978;7.034;2023-04-30T09:26:09;13.50;99.90
31597;DHT22;18201;50.978;7.034;2023-04-30T09:26:51;13.50;99.90
31597;DHT22;18201;50.978;7.034;2023-04-30T09:27:22;13.50;99.90
31597;DHT22;18201;50.978;7.034;2023-04-30T09:28:06;13.50;99.90
31597;DHT22;18201;50.978;7.034;2023-04-30T09:28:53;13.60;99.90
31597;DHT22;18201;50.978;7.034;2023-04-30T09:29:35;13.60;99.90
31597;DHT22;18201;50.978;7.034;2023-04-30T09:30:08;13.70;99.90
31597;DHT22;18201;50.978;7.034;2023-04-30T09:30:40;13.70;99.90
31597;DHT22;18201;50.978;7.034;2023-04-30T09:31:19;13.70;99.90
31597;DHT22;18201;50.978;7.034;2023-04-30T09:31:50;13.80;99.90
31597;DHT22;18201;50.978;7.034;2023-04-30T09:32:22;13.80;44.50
31597;DHT22;18201;50.978;7.034;2023-04-30T09:32:56;13.80;1.00
31597;DHT22;18201;50.978;7.034;2023-04-30T09:33:31;13.90;1.00
31597;DHT22;18201;50.978;7.034;2023-04-30T09:34:14;13.90;1.00
31597;DHT22;18201;50.978;7.034;2023-04-30T09:34:46;14.00;1.00
31597;DHT22;18201;50.978;7.034;2023-04-30T09:35:28;14.00;99.90
31597;DHT22;18201;50.978;7.034;2023-04-30T09:36:07;14.00;99.90
31597;DHT22;18201;50.978;7.034;2023-04-30T09:36:51;14.10;99.90
31597;DHT22;18201;50.978;7.034;2023-04-30T09:37:34;14.10;1.00
31597;DHT22;18201;50.978;7.034;2023-04-30T09:38:06;14.10;48.20
31597;DHT22;18201;50.978;7.034;2023-04-30T09:38:37;14.10;1.00
31597;DHT22;18201;50.978;7.034;2023-04-30T09:39:10;14.10;1.00
31597;DHT22;18201;50.978;7.034;2023-04-30T09:39:48;14.20;1.00
31597;DHT22;18201;50.978;7.034;2023-04-30T09:40:31;14.30;1.00
31597;DHT22;18201;50.978;7.034;2023-04-30T09:41:03;14.30;1.00
31597;DHT22;18201;50.978;7.034;2023-04-30T09:41:34;14.30;1.00
31597;DHT22;18201;50.978;7.034;2023-04-30T09:42:06;14.40;1.00
31597;DHT22;18201;50.978;7.034;2023-04-30T09:42:38;14.40;99.90
31597;DHT22;18201;50.978;7.034;2023-04-30T09:43:09;14.50;99.90
31597;DHT22;18201;50.978;7.034;2023-04-30T09:43:44;14.50;99.90
31597;DHT22;18201;50.978;7.034;2023-04-30T09:44:28;14.60;99.90
31597;DHT22;18201;50.978;7.034;2023-04-30T09:45:00;14.70;99.90
31597;DHT22;18201;50.978;7.034;2023-04-30T09:45:41;14.70;1.00
31597;DHT22;18201;50.978;7.034;2023-04-30T09:46:12;14.80;60.90
31597;DHT22;18201;50.978;7.034;2023-04-30T09:46:45;14.80;40.20
31597;DHT22;18201;50.978;7.034;2023-04-30T09:47:20;14.90;99.90
31597;DHT22;18201;50.978;7.034;2023-04-30T09:47:52;15.00;99.90
31597;DHT22;18201;50.978;7.034;2023-04-30T09:48:24;15.10;1.00
31597;DHT22;18201;50.978;7.034;2023-04-30T09:48:56;15.10;1.00
31597;DHT22;18201;50.978;7.034;2023-04-30T09:49:28;15.20;85.00
31597;DHT22;18201;50.978;7.034;2023-04-30T09:49:59;15.20;99.90
31597;DHT22;18201;50.978;7.034;2023-04-30T09:50:36;15.30;99.90
31597;DHT22;18201;50.978;7.034;2023-04-30T09:51:08;15.40;99.90
31597;DHT22;18201;50.978;7.034;2023-04-30T09:51:52;15.40;1.00
31597;DHT22;18201;50.978;7.034;2023-04-30T09:52:24;15.40;99.90
31597;DHT22;18201;50.978;7.034;2023-04-30T09:53:04;15.50;99.90
31597;DHT22;18201;50.978;7.034;2023-04-30T09:53:37;15.70;1.00
31597;DHT22;18201;50.978;7.034;2023-04-30T09:54:09;15.70;1.00
31597;DHT22;18201;50.978;7.034;2023-04-30T09:54:44;15.80;1.00
31597;DHT22;18201;50.978;7.034;2023-04-30T09:55:15;15.80;99.90
31597;DHT22;18201;50.978;7.034;2023-04-30T09:55:47;16.00;99.90
31597;DHT22;18201;50.978;7.034;2023-04-30T09:56:20;16.00;1.00
31597;DHT22;18201;50.978;7.034;2023-04-30T09:56:53;16.10;99.90
31597;DHT22;18201;50.978;7.034;2023-04-30T09:57:24;16.10;1.00
31597;DHT22;18201;50.978;7.034;2023-04-30T09:57:58;16.20;99.90
31597;DHT22;18201;50.978;7.034;2023-04-30T09:58:30;16.20;29.30
31597;DHT22;18201;50.978;7.034;2023-04-30T09:59:02;16.20;99.90
31597;DHT22;18201;50.978;7.034;2023-04-30T09:59:37;16.20;99.90
31597;DHT22;18201;50.978;7.034;2023-04-30T10:00:10;16.10;1.00
31597;DHT22;18201;50.978;7.034;2023-04-30T10:00:43;16.10;99.90
31597;DHT22;18201;50.978;7.034;2023-04-30T10:01:15;16.10;99.90
31597;DHT22;18201;50.978;7.034;2023-04-30T10:01:50;16.20;1.00
31597;DHT22;18201;50.978;7.034;2023-04-30T10:02:22;16.20;1.00
31597;DHT22;18201;50.978;7.034;2023-04-30T10:02:55;16.30;1.00
31597;DHT22;18201;50.978;7.034;2023-04-30T10:03:30;16.40;99.90
31597;DHT22;18201;50.978;7.034;2023-04-30T10:04:01;16.40;99.90
31597;DHT22;18201;50.978;7.034;2023-04-30T10:04:35;16.40;1.00
31597;DHT22;18201;50.978;7.034;2023-04-30T10:05:08;16.50;99.90
31597;DHT22;18201;50.978;7.034;2023-04-30T10:05:41;16.60;99.90
31597;DHT22;18201;50.978;7.034;2023-04-30T10:06:17;16.60;99.90
31597;DHT22;18201;50.978;7.034;2023-04-30T10:06:50;16.70;99.90
31597;DHT22;18201;50.978;7.034;2023-04-30T10:07:45;16.80;99.90
31597;DHT22;18201;50.978;7.034;2023-04-30T10:08:22;16.90;1.00
31597;DHT22;18201;50.978;7.034;2023-04-30T10:08:56;17.00;99.90
31597;DHT22;18201;50.978;7.034;2023-04-30T10:09:29;17.10;99.90
31597;DHT22;18201;50.978;7.034;2023-04-30T10:10:07;17.20;99.90
31597;DHT22;18201;50.978;7.034;2023-04-30T10:10:39;17.30;99.90
31597;DHT22;18201;50.978;7.034;2023-04-30T10:11:17;17.40;99.90
31597;DHT22;18201;50.978;7.034;2023-04-30T10:11:49;17.40;99.90
31597;DHT22;18201;50.978;7.034;2023-04-30T10:12:25;17.50;99.90
31597;DHT22;18201;50.978;7.034;2023-04-30T10:13:01;17.50;99.90
31597;DHT22;18201;50.978;7.034;2023-04-30T10:13:37;17.60;99.90
31597;DHT22;18201;50.978;7.034;2023-04-30T10:14:12;17.70;99.90
31597;DHT22;18201;50.978;7.034;2023-04-30T10:14:49;17.70;99.90
31597;DHT22;18201;50.978;7.034;2023-04-30T10:15:24;17.70;33.90
31597;DHT22;18201;50.978;7.034;2023-04-30T10:15:58;17.70;1.00
31597;DHT22;18201;50.978;7.034;2023-04-30T10:16:35;17.70;1.00
31597;DHT22;18201;50.978;7.034;2023-04-30T10:17:13;17.70;1.00
31597;DHT22;18201;50.978;7.034;2023-04-30T10:17:49;17.70;1.00
31597;DHT22;18201;50.978;7.034;2023-04-30T10:18:27;17.70;1.00
31597;DHT22;18201;50.978;7.034;2023-04-30T10:19:06;17.70;1.00
31597;DHT22;18201;50.978;7.034;2023-04-30T10:19:38;17.70;1.00
31597;DHT22;18201;50.978;7.034;2023-04-30T10:20:12;17.60;1.00
31597;DHT22;18201;50.978;7.034;2023-04-30T10:20:45;17.60;1.00
31597;DHT22;18201;50.978;7.034;2023-04-30T10:21:17;17.60;1.00
31597;DHT22;18201;50.978;7.034;2023-04-30T10:21:51;17.60;1.00
31597;DHT22;18201;50.978;7.034;2023-04-30T10:22:22;17.70;1.00
31597;DHT22;18201;50.978;7.034;2023-04-30T10:22:54;17.70;1.00
31597;DHT22;18201;50.978;7.034;2023-04-30T10:23:26;17.90;1.00
31597;DHT22;18201;50.978;7.034;2023-04-30T10:23:59;18.10;1.00
31597;DHT22;18201;50.978;7.034;2023-04-30T10:24:31;18.20;1.00
31597;DHT22;18201;50.978;7.034;2023-04-30T10:25:02;18.30;1.00
31597;DHT22;18201;50.978;7.034;2023-04-30T10:25:34;18.50;1.00